Time;durP1;ratioP1;P1;durP2;ratioP2;P2;SDS_P1;SDS_P2;PMS_P1;PMS_P2;Temp;Humidity;BMP_temperature;BMP_pressure;BME280_temperature;BME280_humidity;BME280_pressure;Samples;Min_cycle;Max_cycle;Signal;HPM_P1;HPM_P2
2020/12/18 00:02:13;;;;;;;97.43;20.80;;;;;;;3.74;100.00;101210.31;634964;217;32824;-75
2020/12/18 00:04:46;;;;;;;167.68;23.65;;;;;;;3.41;100.00;101217.95;617988;229;32949;-75
2020/12/18 00:07:15;;;;;;;160.20;22.90;;;;;;;3.76;100.00;101214.09;618125;230;33044;-75
2020/12/18 00:09:45;;;;;;;43.90;20.12;;;;;;;4.11;100.00;101209.74;617357;229;33304;-73
2020/12/18 00:12:15;;;;;;;88.37;17.83;;;;;;;3.68;100.00;101218.34;632550;225;23726;-73
2020/12/18 00:14:46;;;;;;;36.50;19.23;;;;;;;4.17;100.00;101214.09;624385;226;33182;-74
2020/12/18 00:17:17;;;;;;;27.23;14.93;;;;;;;3.33;100.00;101212.34;620098;230;23705;-73
2020/12/18 00:19:46;;;;;;;81.13;15.83;;;;;;;3.34;100.00;101220.88;623597;229;24932;-71
2020/12/18 00:22:22;;;;;;;25.40;15.00;;;;;;;3.37;100.00;101218.98;618854;230;24903;-72
2020/12/18 00:24:53;;;;;;;21.90;16.40;;;;;;;3.91;100.00;101215.89;620694;226;33102;-73
2020/12/18 00:27:26;;;;;;;18.07;14.17;;;;;;;3.56;100.00;101215.09;626491;225;24856;-73
2020/12/18 00:29:57;;;;;;;26.03;15.13;;;;;;;3.58;100.00;101217.95;630695;225;28029;-73
2020/12/18 00:32:31;;;;;;;31.33;16.93;;;;;;;3.66;100.00;101216.73;624593;230;24889;-73
2020/12/18 00:35:02;;;;;;;40.37;15.43;;;;;;;3.56;100.00;101209.49;635022;225;24796;-74
2020/12/18 00:37:36;;;;;;;29.85;18.05;;;;;;;3.95;100.00;101201.98;619559;227;33113;-74
2020/12/18 00:40:08;;;;;;;18.67;13.73;;;;;;;3.54;100.00;101208.74;615498;230;23706;-72
2020/12/18 00:42:40;;;;;;;33.67;18.00;;;;;;;4.14;100.00;101202.69;628635;225;35699;-73
2020/12/18 00:45:09;;;;;;;16.23;12.87;;;;;;;3.55;100.00;101204.43;614175;230;24857;-73
2020/12/18 00:47:41;;;;;;;22.20;13.90;;;;;;;3.47;100.00;101201.39;631741;225;24892;-73
2020/12/18 00:50:11;;;;;;;15.50;11.57;;;;;;;3.32;100.00;101202.97;638180;225;24885;-74
2020/12/18 00:55:22;;;;;;;12.50;10.30;;;;;;;2.94;100.00;101197.91;650902;217;26644;-75
2020/12/18 00:57:52;;;;;;;17.77;14.53;;;;;;;3.52;100.00;101195.13;644413;220;43253;-71
2020/12/18 01:00:23;;;;;;;14.07;11.50;;;;;;;2.96;100.00;101193.56;638536;223;23647;-73
2020/12/18 01:02:53;;;;;;;17.75;14.75;;;;;;;3.71;100.00;101193.75;633482;219;43505;-76
2020/12/18 01:05:24;;;;;;;18.10;13.77;;;;;;;3.39;100.00;101195.80;624090;228;23721;-73
2020/12/18 01:07:58;;;;;;;15.50;12.13;;;;;;;3.04;100.00;101198.31;628823;226;24866;-72
2020/12/18 01:10:31;;;;;;;17.23;12.00;;;;;;;2.97;100.00;101204.21;625598;229;24817;-73
2020/12/18 01:13:03;;;;;;;45.07;13.40;;;;;;;3.10;100.00;101216.03;624644;227;24966;-73
2020/12/18 01:15:32;;;;;;;15.07;11.10;;;;;;;2.82;100.00;101224.20;623207;229;24825;-73
2020/12/18 01:18:03;;;;;;;14.50;10.03;;;;;;;2.89;100.00;101227.30;637214;224;25946;-70
2020/12/18 01:20:35;;;;;;;14.47;9.93;;;;;;;3.16;100.00;101222.61;637574;221;24822;-72
2020/12/18 01:23:04;;;;;;;22.23;9.87;;;;;;;3.12;100.00;101216.79;625792;229;24868;-73
2020/12/18 01:25:37;;;;;;;18.30;9.27;;;;;;;3.09;100.00;101223.33;626344;229;32345;-73
2020/12/18 01:28:10;;;;;;;13.93;10.40;;;;;;;3.20;100.00;101224.95;642123;223;25223;-73
2020/12/18 01:30:42;;;;;;;26.65;15.58;;;;;;;3.67;100.00;101217.97;634735;223;32948;-73
2020/12/18 01:33:14;;;;;;;24.60;12.53;;;;;;;3.27;100.00;101228.91;626830;229;23701;-73
2020/12/18 01:35:45;;;;;;;22.83;11.77;;;;;;;3.26;100.00;101225.96;619607;229;24871;-73
2020/12/18 01:40:55;;;;;;;32.07;11.93;;;;;;;3.22;100.00;101240.30;653632;217;32680;-74
2020/12/18 01:43:25;;;;;;;41.77;11.97;;;;;;;3.18;100.00;101234.92;631557;225;24850;-75
2020/12/18 01:46:00;;;;;;;32.20;12.27;;;;;;;3.17;100.00;101239.69;627219;226;24846;-75
2020/12/18 01:48:32;;;;;;;33.57;12.70;;;;;;;3.21;100.00;101242.48;646893;221;24821;-75
2020/12/18 01:51:02;;;;;;;39.67;11.87;;;;;;;2.95;100.00;101238.11;645814;220;24833;-75
2020/12/18 01:53:33;;;;;;;18.53;10.90;;;;;;;3.00;100.00;101243.05;627939;226;24856;-75
2020/12/18 01:56:06;;;;;;;24.23;11.37;;;;;;;2.89;100.00;101238.41;643648;221;24861;-75
2020/12/18 01:58:38;;;;;;;81.35;16.93;;;;;;;3.06;100.00;101250.92;633851;220;33062;-74
2020/12/18 02:03:51;;;;;;;92.73;12.70;;;;;;;2.73;100.00;101254.14;652890;217;24579;-75
2020/12/18 02:06:22;;;;;;;106.30;18.60;;;;;;;3.12;100.00;101250.20;627900;224;33003;-74
2020/12/18 02:08:52;;;;;;;64.63;13.57;;;;;;;2.97;100.00;101251.75;639472;224;23706;-73
2020/12/18 02:11:27;;;;;;;27.20;11.40;;;;;;;3.03;100.00;101253.64;635556;224;24813;-74
2020/12/18 02:13:58;;;;;;;16.00;9.30;;;;;;;3.03;100.00;101251.90;624374;229;27980;-74
2020/12/18 02:19:12;;;;;;;54.07;11.70;;;;;;;3.23;100.00;101253.52;651071;217;28643;-74
2020/12/18 02:24:25;;;;;;;68.63;10.27;;;;;;;3.32;100.00;101244.10;652790;217;25390;-76
2020/12/18 02:26:56;;;;;;;66.83;10.03;;;;;;;3.36;100.00;101239.19;638424;224;24805;-74
2020/12/18 02:29:25;;;;;;;35.17;9.30;;;;;;;3.42;100.00;101235.50;637735;225;24765;-74
2020/12/18 02:31:57;;;;;;;99.70;15.98;;;;;;;3.75;100.00;101222.27;626155;223;33026;-74
2020/12/18 02:34:27;;;;;;;57.80;13.00;;;;;;;3.41;100.00;101224.84;638297;224;23709;-73
2020/12/18 02:36:58;;;;;;;32.47;11.87;;;;;;;3.46;100.00;101226.27;639416;224;24849;-74
2020/12/18 02:39:28;;;;;;;55.03;15.53;;;;;;;4.03;100.00;101226.84;631301;225;32856;-74
2020/12/18 02:42:01;;;;;;;47.43;13.07;;;;;;;3.74;100.00;101219.77;626656;225;26111;-74
2020/12/18 02:44:32;;;;;;;26.97;13.40;;;;;;;4.03;100.00;101221.70;619571;229;32810;-72
2020/12/18 02:47:04;;;;;;;49.40;11.67;;;;;;;3.66;100.00;101229.17;624940;229;23694;-74
2020/12/18 02:49:40;;;;;;;11.97;9.37;;;;;;;3.41;100.00;101229.98;624707;229;24796;-74
2020/12/18 02:52:10;;;;;;;33.50;13.38;;;;;;;4.12;100.00;101216.55;633136;224;43791;-74
2020/12/18 02:54:40;;;;;;;14.33;9.77;;;;;;;3.56;100.00;101221.52;631076;225;23718;-74
2020/12/18 02:57:14;;;;;;;30.57;9.07;;;;;;;3.63;100.00;101219.01;639507;223;25117;-74
2020/12/18 03:02:25;;;;;;;18.67;9.90;;;;;;;3.72;100.00;101207.44;648616;217;33116;-73
2020/12/18 03:04:55;;;;;;;64.33;10.77;;;;;;;3.54;100.00;101211.77;641759;221;24800;-73
2020/12/18 03:07:26;;;;;;;21.23;8.90;;;;;;;3.21;100.00;101210.36;642543;221;24787;-73
2020/12/18 03:09:57;;;;;;;15.10;8.87;;;;;;;3.26;100.00;101218.70;638100;221;24826;-72
2020/12/18 03:12:27;;;;;;;11.73;9.03;;;;;;;3.41;100.00;101203.82;647103;219;24744;-73
2020/12/18 03:15:03;;;;;;;9.27;7.30;;;;;;;3.38;100.00;101206.97;645690;221;27265;-73
2020/12/18 03:17:37;;;;;;;32.23;9.10;;;;;;;3.27;100.00;101208.80;659316;217;24773;-72
2020/12/18 03:20:08;;;;;;;22.50;9.37;;;;;;;3.07;100.00;101205.04;644037;221;28046;-73
2020/12/18 03:22:40;;;;;;;34.60;11.17;;;;;;;2.91;100.00;101198.06;652559;218;24779;-72
2020/12/18 03:25:09;;;;;;;12.53;8.33;;;;;;;2.81;100.00;101205.80;637885;221;24863;-75
2020/12/18 03:27:38;;;;;;;24.85;10.75;;;;;;;3.23;100.00;101205.52;637353;220;32768;-75
2020/12/18 03:30:08;;;;;;;25.68;12.60;;;;;;;3.24;100.00;101202.07;642353;221;43300;-75
2020/12/18 03:32:40;;;;;;;15.90;11.80;;;;;;;3.32;100.00;101202.14;640629;221;32579;-75
2020/12/18 03:35:09;;;;;;;18.23;9.20;;;;;;;2.91;100.00;101210.07;638427;221;23677;-75
2020/12/18 03:37:41;;;;;;;22.70;9.17;;;;;;;2.72;100.00;101207.53;645099;220;25090;-76
2020/12/18 03:40:12;;;;;;;12.68;11.10;;;;;;;3.19;100.00;101210.89;650823;217;43327;-75
2020/12/18 03:45:25;;;;;;;18.83;9.20;;;;;;;2.97;100.00;101213.20;651811;213;33612;-76
2020/12/18 03:47:57;;;;;;;9.53;7.60;;;;;;;2.98;100.00;101221.30;640209;219;27972;-75
2020/12/18 03:50:28;;;;;;;10.10;8.33;;;;;;;3.06;100.00;101218.80;652402;219;25801;-76
2020/12/18 03:52:59;;;;;;;8.17;7.20;;;;;;;3.06;100.00;101213.66;627839;226;30360;-76
2020/12/18 03:55:29;;;;;;;27.13;9.53;;;;;;;3.27;100.00;101213.48;637297;225;24809;-76
2020/12/18 03:58:01;;;;;;;36.47;9.47;;;;;;;3.23;100.00;101213.68;635907;225;25112;-75
2020/12/18 04:00:33;;;;;;;53.63;11.00;;;;;;;3.38;100.00;101207.83;634826;226;24901;-75
2020/12/18 04:03:03;;;;;;;36.63;14.87;;;;;;;3.85;100.00;101193.89;620057;226;32960;-76
2020/12/18 04:05:33;;;;;;;23.10;13.72;;;;;;;3.95;100.00;101189.11;629623;225;33126;-76
2020/12/18 04:08:06;;;;;;;30.02;13.48;;;;;;;3.98;100.00;101186.83;625633;225;32881;-76
2020/12/18 04:10:38;;;;;;;49.50;12.30;;;;;;;3.52;100.00;101196.42;637503;224;23751;-75
2020/12/18 04:13:11;;;;;;;32.78;13.78;;;;;;;3.98;100.00;101189.41;632010;225;43909;-76
2020/12/18 04:15:44;;;;;;;26.02;14.28;;;;;;;4.03;100.00;101188.70;631456;225;32916;-75
2020/12/18 04:18:16;;;;;;;28.55;14.60;;;;;;;4.03;99.89;101184.84;631077;225;32977;-76
2020/12/18 04:20:48;;;;;;;45.33;12.40;;;;;;;3.44;100.00;101188.69;637228;225;23697;-76
2020/12/18 04:23:21;;;;;;;31.03;10.07;;;;;;;2.92;100.00;101186.88;637846;225;24841;-76
2020/12/18 04:25:51;;;;;;;51.27;9.47;;;;;;;2.93;100.00;101191.11;637721;225;24859;-73
2020/12/18 04:28:23;;;;;;;19.65;11.08;;;;;;;3.24;100.00;101194.81;628945;225;33132;-75
2020/12/18 04:30:55;;;;;;;13.00;9.75;;;;;;;3.38;100.00;101190.26;632108;225;33235;-75
2020/12/18 04:33:28;;;;;;;11.23;8.63;;;;;;;2.92;100.00;101193.75;637751;225;23704;-74
2020/12/18 04:35:59;;;;;;;27.20;9.33;;;;;;;2.89;100.00;101190.05;636305;225;24838;-75
2020/12/18 04:38:30;;;;;;;8.30;7.40;;;;;;;2.79;100.00;101187.06;638037;225;29112;-75
2020/12/18 04:40:59;;;;;;;9.27;7.40;;;;;;;2.81;100.00;101189.56;638558;225;24868;-74
2020/12/18 04:43:29;;;;;;;31.95;11.93;;;;;;;3.10;100.00;101181.80;632247;225;32962;-76
2020/12/18 04:45:59;;;;;;;18.40;8.80;;;;;;;2.65;100.00;101188.16;638512;225;23719;-75
2020/12/18 04:48:30;;;;;;;14.60;7.67;;;;;;;2.60;100.00;101187.55;636964;225;24873;-75
2020/12/18 04:51:00;;;;;;;38.17;12.00;;;;;;;2.96;100.00;101183.28;630886;225;32818;-75
2020/12/18 04:53:31;;;;;;;9.27;8.37;;;;;;;2.56;100.00;101189.88;632663;222;25044;-76
2020/12/18 04:55:59;;;;;;;17.85;10.35;;;;;;;3.16;100.00;101186.63;636264;222;33076;-75
2020/12/18 04:58:31;;;;;;;12.90;9.50;;;;;;;3.35;100.00;101186.10;635986;221;32630;-75
2020/12/18 05:01:02;;;;;;;10.33;7.77;;;;;;;2.53;100.00;101192.56;642461;221;23655;-74
2020/12/18 05:03:32;;;;;;;12.30;7.20;;;;;;;2.18;100.00;101198.00;639602;222;24754;-74
2020/12/18 05:06:05;;;;;;;31.53;8.00;;;;;;;2.17;100.00;101199.73;640919;222;24768;-75
2020/12/18 05:08:34;;;;;;;19.00;7.20;;;;;;;2.14;100.00;101196.03;638977;222;25020;-75
2020/12/18 05:11:15;;;;;;;56.33;9.13;;;;;;;2.30;100.00;101195.73;641931;221;24807;-75
2020/12/18 05:13:47;;;;;;;13.47;7.40;;;;;;;2.09;100.00;101192.81;639351;222;24739;-75
2020/12/18 05:16:18;;;;;;;10.23;7.50;;;;;;;2.16;100.00;101195.95;635410;222;26949;-74
2020/12/18 05:18:49;;;;;;;39.63;9.47;;;;;;;2.27;100.00;101188.17;641309;222;24797;-75
2020/12/18 05:21:20;;;;;;;20.30;8.10;;;;;;;2.24;100.00;101187.00;636587;222;24815;-75
2020/12/18 05:23:51;;;;;;;35.05;12.03;;;;;;;2.77;100.00;101185.03;619637;227;32791;-74
2020/12/18 05:26:22;;;;;;;10.80;9.70;;;;;;;2.80;100.00;101177.62;633038;222;32916;-75
2020/12/18 05:31:34;;;;;;;8.70;7.00;;;;;;;2.11;100.00;101188.44;649903;217;25413;-75
2020/12/18 05:34:05;;;;;;;9.70;7.07;;;;;;;1.93;100.00;101187.52;641542;221;24821;-73
2020/12/18 05:36:36;;;;;;;9.37;7.03;;;;;;;1.90;100.00;101185.53;645210;220;24801;-73
2020/12/18 05:39:08;;;;;;;8.77;6.77;;;;;;;1.66;100.00;101192.08;645516;221;24825;-74
2020/12/18 05:41:38;;;;;;;9.35;7.70;;;;;;;2.16;100.00;101195.51;633294;221;33485;-74
2020/12/18 05:44:08;;;;;;;8.80;7.57;;;;;;;1.94;100.00;101193.47;645509;218;23652;-73
2020/12/18 05:46:39;;;;;;;8.37;7.30;;;;;;;1.83;100.00;101196.94;640292;221;24803;-72
2020/12/18 05:49:11;;;;;;;7.73;6.37;;;;;;;1.92;100.00;101199.13;648679;219;24760;-74
2020/12/18 05:51:42;;;;;;;11.05;7.90;;;;;;;2.40;100.00;101191.03;639908;218;32617;-74
2020/12/18 05:54:14;;;;;;;7.80;6.70;;;;;;;2.01;100.00;101200.86;651775;218;23682;-74
2020/12/18 05:56:44;;;;;;;9.80;7.00;;;;;;;1.79;100.00;101198.36;644282;221;24844;-74
2020/12/18 05:59:13;;;;;;;14.35;8.80;;;;;;;2.44;100.00;101202.81;631372;221;32698;-74
2020/12/18 06:01:44;;;;;;;8.63;7.40;;;;;;;1.90;100.00;101195.80;636492;221;27095;-73
2020/12/18 06:04:14;;;;;;;9.73;7.90;;;;;;;2.47;100.00;101197.98;629932;221;32681;-75
2020/12/18 06:06:46;;;;;;;8.60;6.80;;;;;;;1.99;100.00;101201.38;645728;222;23711;-72
2020/12/18 06:09:16;;;;;;;8.18;7.28;;;;;;;2.15;100.00;101193.84;640487;222;32921;-74
2020/12/18 06:11:49;;;;;;;8.20;6.53;;;;;;;1.62;100.00;101200.80;644232;222;23686;-74
2020/12/18 06:14:19;;;;;;;8.60;6.10;;;;;;;1.43;100.00;101199.91;635679;222;24797;-74
2020/12/18 06:16:50;;;;;;;9.27;6.23;;;;;;;1.38;100.00;101197.50;638554;222;24814;-74
2020/12/18 06:19:18;;;;;;;7.77;6.27;;;;;;;1.13;100.00;101200.23;640541;222;24848;-72
2020/12/18 06:21:53;;;;;;;12.27;7.03;;;;;;;1.15;100.00;101204.02;643359;221;24829;-74
2020/12/18 06:24:27;;;;;;;10.70;6.67;;;;;;;1.08;100.00;101213.66;642197;222;27973;-74
2020/12/18 06:27:00;;;;;;;11.20;7.57;;;;;;;1.29;100.00;101213.72;640398;221;24863;-72
2020/12/18 06:29:33;;;;;;;8.00;6.20;;;;;;;1.30;100.00;101212.38;630773;225;24842;-73
2020/12/18 06:32:22;;;;;;;10.87;6.50;;;;;;;1.29;100.00;101204.30;636270;221;24842;-73
2020/12/18 06:34:54;;;;;;;9.87;6.50;;;;;;;1.30;100.00;101196.17;652277;217;24779;-73
2020/12/18 06:37:28;;;;;;;9.03;6.50;;;;;;;1.42;100.00;101200.35;656744;218;24770;-73
2020/12/18 06:39:57;;;;;;;9.20;6.27;;;;;;;1.37;100.00;101198.85;656151;218;24778;-74
2020/12/18 06:42:26;;;;;;;8.03;5.93;;;;;;;1.31;100.00;101196.55;639224;221;24789;-73
2020/12/18 06:44:55;;;;;;;8.97;5.63;;;;;;;1.06;100.00;101205.65;657534;216;24728;-73
2020/12/18 06:47:30;;;;;;;7.17;5.60;;;;;;;1.25;100.00;101211.70;641816;221;24779;-74
2020/12/18 06:50:07;;;;;;;9.30;6.40;;;;;;;1.33;100.00;101205.84;646907;221;24815;-75
2020/12/18 06:52:45;;;;;;;5.83;5.00;;;;;;;1.19;100.00;101207.67;639662;221;24775;-74
2020/12/18 06:55:16;;;;;;;9.03;7.10;;;;;;;1.32;100.00;101203.34;655499;217;24744;-73
2020/12/18 06:57:47;;;;;;;8.40;6.57;;;;;;;1.12;100.00;101210.07;644315;221;24781;-74
2020/12/18 07:00:27;;;;;;;12.60;7.73;;;;;;;1.08;100.00;101209.81;645957;221;24727;-74
2020/12/18 07:02:57;;;;;;;7.77;6.60;;;;;;;1.01;100.00;101211.41;642718;221;24737;-74
2020/12/18 07:05:33;;;;;;;8.70;6.00;;;;;;;0.98;100.00;101224.31;644737;221;24761;-73
2020/12/18 07:08:05;;;;;;;8.13;6.40;;;;;;;0.96;100.00;101224.82;647178;220;28426;-74
2020/12/18 07:10:40;;;;;;;9.10;6.60;;;;;;;0.92;100.00;101217.70;641317;221;24767;-72
2020/12/18 07:13:11;;;;;;;8.23;6.77;;;;;;;0.92;100.00;101225.39;641510;221;24777;-74
2020/12/18 07:15:49;;;;;;;8.07;6.60;;;;;;;1.07;100.00;101218.39;638067;222;24778;-75
2020/12/18 07:18:23;;;;;;;6.67;5.73;;;;;;;1.15;100.00;101219.39;635433;222;24794;-74
2020/12/18 07:20:53;;;;;;;10.07;6.80;;;;;;;1.18;100.00;101210.30;638556;222;24798;-71
2020/12/18 07:23:23;;;;;;;7.40;5.63;;;;;;;1.22;100.00;101209.27;640338;221;24790;-76
2020/12/18 07:25:53;;;;;;;7.10;6.30;;;;;;;1.27;100.00;101207.80;641581;219;24826;-71
2020/12/18 07:28:24;;;;;;;7.20;6.00;;;;;;;1.28;100.00;101199.24;644020;217;24845;-74
2020/12/18 07:30:55;;;;;;;7.00;5.80;;;;;;;1.32;100.00;101197.77;640999;222;25671;-73
2020/12/18 07:33:26;;;;;;;7.10;5.90;;;;;;;1.39;100.00;101200.90;638409;221;24976;-74
2020/12/18 07:35:58;;;;;;;13.25;8.28;;;;;;;2.13;100.00;101205.91;636425;218;32678;-75
2020/12/18 07:38:32;;;;;;;10.07;7.97;;;;;;;1.89;100.00;101203.94;650422;219;23943;-75
2020/12/18 07:41:00;;;;;;;20.05;8.60;;;;;;;2.29;100.00;101199.66;644923;219;32610;-75
2020/12/18 07:43:30;;;;;;;43.28;10.93;;;;;;;2.59;100.00;101200.00;646019;218;32602;-73
2020/12/18 07:46:00;;;;;;;90.43;10.57;;;;;;;2.12;100.00;101214.51;639038;221;23710;-74
2020/12/18 07:48:32;;;;;;;85.23;10.43;;;;;;;1.99;100.00;101217.22;640265;222;24820;-75
2020/12/18 07:51:03;;;;;;;28.73;8.97;;;;;;;1.64;100.00;101212.27;642117;221;24832;-73
2020/12/18 07:53:35;;;;;;;18.57;7.47;;;;;;;1.52;100.00;101221.30;643185;220;24763;-72
2020/12/18 07:56:06;;;;;;;39.23;10.25;;;;;;;1.99;100.00;101212.09;648813;216;43283;-75
2020/12/18 07:58:37;;;;;;;9.10;6.70;;;;;;;1.56;100.00;101205.36;641373;221;23662;-73
2020/12/18 08:01:12;;;;;;;7.37;6.43;;;;;;;1.43;100.00;101212.27;641076;221;24816;-73
2020/12/18 08:03:45;;;;;;;8.60;5.87;;;;;;;1.35;100.00;101205.33;649251;218;24804;-73
2020/12/18 08:06:16;;;;;;;10.47;5.80;;;;;;;1.26;100.00;101213.37;648153;218;24876;-73
2020/12/18 08:08:51;;;;;;;5.37;4.57;;;;;;;1.41;100.00;101224.31;649778;218;24751;-74
2020/12/18 08:11:21;;;;;;;4.80;4.40;;;;;;;1.48;100.00;101221.05;642445;221;29016;-73
2020/12/18 08:13:50;;;;;;;4.80;4.03;;;;;;;1.46;100.00;101227.97;641126;221;24749;-74
2020/12/18 08:16:21;;;;;;;7.60;4.40;;;;;;;1.55;100.00;101223.75;642380;221;24879;-73
2020/12/18 08:18:53;;;;;;;8.17;4.33;;;;;;;1.85;100.00;101227.23;641763;221;24770;-73
2020/12/18 08:21:24;;;;;;;6.03;4.43;;;;;;;1.93;100.00;101232.40;655377;217;27027;-73
2020/12/18 08:24:01;;;;;;;70.35;15.45;;;;;;;2.50;100.00;101222.23;645145;218;32564;-73
2020/12/18 08:29:31;;;;;;;17.20;9.67;;;;;;;2.39;100.00;101229.13;649376;214;32777;-75
2020/12/18 08:31:59;;;;;;;16.00;7.60;;;;;;;2.27;100.00;101231.80;642863;220;25169;-74
2020/12/18 08:34:28;;;;;;;8.80;6.55;;;;;;;2.87;100.00;101229.11;635814;221;43554;-74
2020/12/18 08:37:00;;;;;;;11.12;5.90;;;;;;;3.21;100.00;101224.49;637171;221;43554;-74
2020/12/18 08:39:32;;;;;;;10.03;5.27;;;;;;;2.85;100.00;101221.48;640320;221;23737;-73
2020/12/18 08:42:04;;;;;;;25.35;11.28;;;;;;;3.52;100.00;101221.30;635868;221;32827;-74
2020/12/18 08:44:38;;;;;;;17.90;10.67;;;;;;;3.01;100.00;101222.88;640981;221;23995;-73
2020/12/18 08:47:19;;;;;;;17.13;7.77;;;;;;;2.84;100.00;101231.38;648592;219;25306;-72
2020/12/18 08:49:50;;;;;;;14.78;9.35;;;;;;;3.37;100.00;101236.16;634829;221;33092;-74
2020/12/18 08:52:24;;;;;;;26.30;9.30;;;;;;;3.39;100.00;101235.20;636871;221;32826;-72
2020/12/18 08:55:01;;;;;;;35.05;9.85;;;;;;;3.56;98.58;101227.49;635076;221;32724;-72
2020/12/18 08:57:32;;;;;;;7.47;4.87;;;;;;;2.67;100.00;101236.42;640675;221;24000;-74
2020/12/18 09:00:05;;;;;;;9.30;4.93;;;;;;;3.52;99.90;101232.42;635122;221;32683;-74
2020/12/18 09:02:36;;;;;;;18.77;5.80;;;;;;;3.40;100.00;101237.32;641206;221;25150;-72
2020/12/18 09:05:22;;;;;;;41.50;8.30;;;;;;;3.68;98.36;101230.37;637344;221;43699;-73
2020/12/18 09:07:54;;;;;;;13.70;6.50;;;;;;;3.26;99.98;101243.13;639334;222;23725;-73
2020/12/18 09:10:34;;;;;;;10.53;5.40;;;;;;;3.16;100.00;101248.31;640256;221;24821;-72
2020/12/18 09:13:14;;;;;;;7.10;5.73;;;;;;;3.07;100.00;101250.02;639856;221;24874;-73
2020/12/18 09:15:42;;;;;;;18.50;5.90;;;;;;;3.14;100.00;101252.23;640648;217;24850;-72
2020/12/18 09:18:13;;;;;;;19.62;6.58;;;;;;;3.89;100.00;101246.02;634995;221;32780;-71
2020/12/18 09:20:46;;;;;;;7.90;6.00;;;;;;;3.49;100.00;101238.97;640231;221;23722;-73
2020/12/18 09:23:13;;;;;;;21.67;5.40;;;;;;;3.28;100.00;101233.14;639969;221;24831;-71
2020/12/18 09:25:42;;;;;;;5.33;4.13;;;;;;;3.28;100.00;101230.56;640166;221;24846;-71
2020/12/18 09:28:13;;;;;;;17.90;4.27;;;;;;;3.33;100.00;101234.20;640709;221;25833;-73
2020/12/18 09:30:48;;;;;;;11.40;4.73;;;;;;;3.32;100.00;101231.25;639571;221;24969;-74
2020/12/18 09:33:29;;;;;;;20.00;5.53;;;;;;;3.60;100.00;101220.45;634260;222;32735;-73
2020/12/18 09:35:58;;;;;;;29.40;4.80;;;;;;;3.42;100.00;101232.48;639492;222;24828;-72
2020/12/18 09:38:28;;;;;;;21.30;5.10;;;;;;;3.74;100.00;101218.48;636224;221;43120;-72
2020/12/18 09:40:57;;;;;;;61.13;5.57;;;;;;;3.43;100.00;101218.71;642363;221;30644;-72
2020/12/18 09:43:28;;;;;;;83.25;6.45;;;;;;;3.60;99.81;101222.19;636004;221;32730;-71
2020/12/18 09:45:59;;;;;;;76.87;6.17;;;;;;;3.05;100.00;101222.27;641293;221;23746;-71
2020/12/18 09:48:29;;;;;;;38.73;6.03;;;;;;;3.09;100.00;101227.64;638437;222;26934;-73
2020/12/18 09:51:00;;;;;;;5.13;4.63;;;;;;;3.07;100.00;101242.30;641302;221;24879;-74
2020/12/18 09:53:30;;;;;;;92.03;8.33;;;;;;;3.33;100.00;101234.20;655286;218;24793;-73
2020/12/18 09:56:04;;;;;;;81.13;6.20;;;;;;;3.47;100.00;101227.94;642450;221;24802;-74
2020/12/18 09:58:33;;;;;;;14.57;6.10;;;;;;;3.51;100.00;101226.03;641440;221;25179;-73
2020/12/18 10:01:03;;;;;;;61.07;6.30;;;;;;;3.51;100.00;101225.58;641074;221;24801;-74
2020/12/18 10:03:35;;;;;;;29.10;5.10;;;;;;;3.42;100.00;101238.08;641535;221;24827;-71
2020/12/18 10:06:05;;;;;;;8.73;5.10;;;;;;;3.64;100.00;101234.81;641630;221;24807;-74
2020/12/18 10:08:37;;;;;;;6.10;4.83;;;;;;;3.79;100.00;101230.65;642873;221;24844;-72
2020/12/18 10:11:09;;;;;;;31.03;7.43;;;;;;;4.22;100.00;101231.05;641079;221;24797;-71
2020/12/18 10:14:22;;;;;;;43.40;9.03;;;;;;;4.68;100.00;101223.04;649064;216;33719;-72
2020/12/18 10:16:54;;;;;;;8.67;6.90;;;;;;;4.62;100.00;101222.06;640634;223;24829;-73
2020/12/18 10:19:25;;;;;;;12.00;7.03;;;;;;;4.76;100.00;101213.95;636555;225;24785;-72
2020/12/18 10:21:56;;;;;;;15.83;7.60;;;;;;;4.98;100.00;101207.64;636689;224;24843;-73
2020/12/18 10:24:26;;;;;;;12.00;7.67;;;;;;;4.90;100.00;101208.52;636204;225;24802;-73
2020/12/18 10:26:58;;;;;;;23.67;8.95;;;;;;;5.50;99.41;101195.69;630145;224;32772;-73
2020/12/18 10:29:28;;;;;;;23.33;8.23;;;;;;;5.22;98.88;101193.85;636397;225;23698;-71
2020/12/18 10:32:01;;;;;;;22.03;7.53;;;;;;;5.34;99.21;101187.52;636261;225;31259;-70
2020/12/18 10:34:31;;;;;;;26.50;7.50;;;;;;;5.27;99.56;101187.51;636512;223;24817;-73
2020/12/18 10:37:02;;;;;;;21.87;6.73;;;;;;;5.32;99.58;101182.08;632063;225;29066;-73
2020/12/18 10:39:31;;;;;;;20.00;6.83;;;;;;;5.19;99.23;101181.11;634797;225;26336;-73
2020/12/18 10:42:05;;;;;;;12.35;7.90;;;;;;;5.65;97.61;101177.57;630633;225;33000;-73
2020/12/18 10:44:34;;;;;;;33.90;7.97;;;;;;;5.46;98.27;101173.09;636373;225;23674;-71
2020/12/18 10:47:03;;;;;;;23.77;7.23;;;;;;;5.11;98.27;101175.11;648910;221;29245;-72
2020/12/18 10:49:33;;;;;;;75.55;9.50;;;;;;;5.68;97.26;101175.27;631511;224;32736;-71
2020/12/18 10:52:03;;;;;;;64.57;8.53;;;;;;;5.44;98.30;101166.36;641137;222;23660;-73
2020/12/18 10:54:38;;;;;;;26.33;8.53;;;;;;;5.35;99.53;101171.61;640320;222;24923;-70
2020/12/18 10:57:08;;;;;;;39.10;8.90;;;;;;;5.78;98.04;101163.48;635673;222;32790;-71
2020/12/18 10:59:42;;;;;;;84.87;10.73;;;;;;;5.72;97.85;101153.51;636364;225;23659;-73
2020/12/18 11:02:11;;;;;;;92.27;9.63;;;;;;;5.75;98.32;101154.61;648341;220;24855;-73
2020/12/18 11:04:40;;;;;;;19.87;9.20;;;;;;;5.58;98.60;101151.73;636222;225;24811;-72
2020/12/18 11:07:10;;;;;;;10.40;8.40;;;;;;;5.55;99.02;101157.55;635538;225;24845;-73
2020/12/18 11:09:39;;;;;;;162.43;13.55;;;;;;;6.07;96.84;101145.45;630903;224;33058;-72
2020/12/18 11:12:08;;;;;;;7.90;7.10;;;;;;;5.64;98.71;101153.15;636246;225;23710;-73
2020/12/18 11:14:39;;;;;;;52.30;8.33;;;;;;;5.78;99.29;101150.58;635633;225;24800;-72
2020/12/18 11:17:09;;;;;;;32.37;7.80;;;;;;;5.65;97.81;101145.31;635425;225;24939;-72
2020/12/18 11:19:43;;;;;;;76.37;10.82;;;;;;;6.29;97.65;101139.78;629716;225;32813;-73
2020/12/18 11:22:13;;;;;;;66.75;10.28;;;;;;;6.34;96.38;101136.48;629695;225;32728;-71
2020/12/18 11:24:45;;;;;;;49.83;9.23;;;;;;;5.89;97.25;101143.00;634714;223;24922;-72
2020/12/18 11:27:15;;;;;;;31.83;7.90;;;;;;;5.68;96.76;101134.44;636671;224;25121;-73
2020/12/18 11:29:46;;;;;;;191.10;12.73;;;;;;;5.85;97.13;101135.08;631192;225;32781;-73
2020/12/18 11:32:18;;;;;;;135.40;14.60;;;;;;;6.12;96.84;101120.99;632272;224;33034;-73
2020/12/18 11:34:48;;;;;;;191.82;14.15;;;;;;;6.35;96.19;101119.59;631587;224;32868;-72
2020/12/18 11:37:17;;;;;;;249.67;12.10;;;;;;;5.61;97.50;101121.05;638564;221;23678;-72
2020/12/18 11:39:46;;;;;;;13.70;5.73;;;;;;;5.30;98.75;101128.01;636162;225;24822;-73
2020/12/18 11:42:15;;;;;;;153.93;10.40;;;;;;;5.24;99.48;101119.35;648280;220;24790;-73
2020/12/18 11:44:46;;;;;;;144.37;9.97;;;;;;;5.01;100.00;101128.84;635618;225;24810;-73
2020/12/18 11:47:19;;;;;;;105.70;7.13;;;;;;;5.01;100.00;101126.27;635779;225;24803;-74
2020/12/18 11:49:48;;;;;;;117.83;7.53;;;;;;;5.16;100.00;101122.81;648026;220;24933;-73
2020/12/18 11:52:21;;;;;;;67.40;6.87;;;;;;;5.18;99.84;101118.39;629920;224;40052;-75
2020/12/18 11:54:51;;;;;;;76.07;7.40;;;;;;;5.33;99.67;101123.12;629937;225;32868;-72
2020/12/18 11:57:23;;;;;;;129.57;7.90;;;;;;;4.94;100.00;101131.41;635308;225;23686;-72
2020/12/18 11:59:52;;;;;;;42.83;6.77;;;;;;;5.01;100.00;101118.53;646284;219;28985;-72
2020/12/18 12:02:22;;;;;;;23.90;6.70;;;;;;;5.00;100.00;101111.27;635436;224;24823;-75